<?xml version="1.0" encoding="UTF-8" standalone="no" ?>
<gpx xmlns="http://www.topografix.com/GPX/1/1" xmlns:xsi="http://www.w3.org/2001/XMLSchema-instance" xsi:schemaLocation="http://www.topografix.com/GPX/1/1 http://www.topografix.com/GPX/1/1/gpx.xsd" version="1.1" creator="VisuGPX - https://www.visugpx.com">
  <metadata>
    <name>Lisle-sur-Tarn-23042008-MNT</name>
    <desc><![CDATA[
]]></desc>
  </metadata>
  <trk>
    <name><![CDATA[Lisle-sur-Tarn-23042008-MNT]]></name>
    <trkseg>
      <trkpt lat="43.86378" lon="1.81752">
        <ele>125</ele>
        <time>2008-04-23T09:57:07Z</time>
      </trkpt>
      <trkpt lat="43.8638" lon="1.81728">
        <ele>125</ele>
        <time>2008-04-23T09:57:36Z</time>
      </trkpt>
      <trkpt lat="43.8639" lon="1.81713">
        <ele>124</ele>
        <time>2008-04-23T09:57:51Z</time>
      </trkpt>
      <trkpt lat="43.86405" lon="1.81697">
        <ele>124</ele>
        <time>2008-04-23T09:58:04Z</time>
      </trkpt>
      <trkpt lat="43.86437" lon="1.817">
        <ele>125</ele>
        <time>2008-04-23T09:58:34Z</time>
      </trkpt>
      <trkpt lat="43.86465" lon="1.8172">
        <ele>125</ele>
        <time>2008-04-23T09:58:51Z</time>
      </trkpt>
      <trkpt lat="43.86485" lon="1.81695">
        <ele>125</ele>
        <time>2008-04-23T09:59:06Z</time>
      </trkpt>
      <trkpt lat="43.86505" lon="1.81688">
        <ele>126</ele>
        <time>2008-04-23T09:59:20Z</time>
      </trkpt>
      <trkpt lat="43.86528" lon="1.81717">
        <ele>126</ele>
        <time>2008-04-23T09:59:44Z</time>
      </trkpt>
      <trkpt lat="43.86565" lon="1.8171">
        <ele>127</ele>
        <time>2008-04-23T10:00:14Z</time>
      </trkpt>
      <trkpt lat="43.86533" lon="1.81698">
        <ele>126</ele>
        <time>2008-04-23T10:00:29Z</time>
      </trkpt>
      <trkpt lat="43.86638" lon="1.81653">
        <ele>129</ele>
        <time>2008-04-23T10:01:34Z</time>
      </trkpt>
      <trkpt lat="43.86718" lon="1.816">
        <ele>130</ele>
        <time>2008-04-23T10:02:33Z</time>
      </trkpt>
      <trkpt lat="43.86747" lon="1.81573">
        <ele>130</ele>
        <time>2008-04-23T10:03:00Z</time>
      </trkpt>
      <trkpt lat="43.86772" lon="1.81527">
        <ele>130</ele>
        <time>2008-04-23T10:03:34Z</time>
      </trkpt>
      <trkpt lat="43.8679" lon="1.81482">
        <ele>131</ele>
        <time>2008-04-23T10:04:07Z</time>
      </trkpt>
      <trkpt lat="43.86807" lon="1.8149">
        <ele>131</ele>
        <time>2008-04-23T10:04:24Z</time>
      </trkpt>
      <trkpt lat="43.86842" lon="1.81423">
        <ele>132</ele>
        <time>2008-04-23T10:05:17Z</time>
      </trkpt>
      <trkpt lat="43.86927" lon="1.81338">
        <ele>133</ele>
        <time>2008-04-23T10:06:42Z</time>
      </trkpt>
      <trkpt lat="43.86975" lon="1.81285">
        <ele>134</ele>
        <time>2008-04-23T10:07:31Z</time>
      </trkpt>
      <trkpt lat="43.8705" lon="1.8123">
        <ele>134</ele>
        <time>2008-04-23T10:08:43Z</time>
      </trkpt>
      <trkpt lat="43.87067" lon="1.81213">
        <ele>135</ele>
        <time>2008-04-23T10:09:04Z</time>
      </trkpt>
      <trkpt lat="43.87055" lon="1.81173">
        <ele>135</ele>
        <time>2008-04-23T10:09:33Z</time>
      </trkpt>
      <trkpt lat="43.87023" lon="1.81132">
        <ele>135</ele>
        <time>2008-04-23T10:10:12Z</time>
      </trkpt>
      <trkpt lat="43.86993" lon="1.81098">
        <ele>135</ele>
        <time>2008-04-23T10:10:42Z</time>
      </trkpt>
      <trkpt lat="43.86932" lon="1.81042">
        <ele>134</ele>
        <time>2008-04-23T10:11:43Z</time>
      </trkpt>
      <trkpt lat="43.869" lon="1.81028">
        <ele>134</ele>
        <time>2008-04-23T10:12:11Z</time>
      </trkpt>
      <trkpt lat="43.86868" lon="1.81017">
        <ele>134</ele>
        <time>2008-04-23T10:12:39Z</time>
      </trkpt>
      <trkpt lat="43.86802" lon="1.80955">
        <ele>134</ele>
        <time>2008-04-23T10:13:44Z</time>
      </trkpt>
      <trkpt lat="43.86772" lon="1.80915">
        <ele>133</ele>
        <time>2008-04-23T10:14:18Z</time>
      </trkpt>
      <trkpt lat="43.86698" lon="1.80853">
        <ele>133</ele>
        <time>2008-04-23T10:15:25Z</time>
      </trkpt>
      <trkpt lat="43.86775" lon="1.80738">
        <ele>134</ele>
        <time>2008-04-23T10:16:58Z</time>
      </trkpt>
      <trkpt lat="43.86817" lon="1.8076">
        <ele>134</ele>
        <time>2008-04-23T10:17:36Z</time>
      </trkpt>
      <trkpt lat="43.86865" lon="1.8074">
        <ele>135</ele>
        <time>2008-04-23T10:18:16Z</time>
      </trkpt>
      <trkpt lat="43.87112" lon="1.80572">
        <ele>137</ele>
        <time>2008-04-23T10:21:56Z</time>
      </trkpt>
      <trkpt lat="43.87137" lon="1.80577">
        <ele>137</ele>
        <time>2008-04-23T10:22:17Z</time>
      </trkpt>
      <trkpt lat="43.87158" lon="1.80593">
        <ele>137</ele>
        <time>2008-04-23T10:22:38Z</time>
      </trkpt>
      <trkpt lat="43.8725" lon="1.8057">
        <ele>138</ele>
        <time>2008-04-23T10:23:57Z</time>
      </trkpt>
      <trkpt lat="43.87308" lon="1.80532">
        <ele>138</ele>
        <time>2008-04-23T10:24:52Z</time>
      </trkpt>
      <trkpt lat="43.87327" lon="1.80513">
        <ele>138</ele>
        <time>2008-04-23T10:25:13Z</time>
      </trkpt>
      <trkpt lat="43.87358" lon="1.80493">
        <ele>138</ele>
        <time>2008-04-23T10:25:40Z</time>
      </trkpt>
      <trkpt lat="43.87508" lon="1.80418">
        <ele>139</ele>
        <time>2008-04-23T10:27:47Z</time>
      </trkpt>
      <trkpt lat="43.87525" lon="1.80417">
        <ele>139</ele>
        <time>2008-04-23T10:28:02Z</time>
      </trkpt>
      <trkpt lat="43.87545" lon="1.80427">
        <ele>139</ele>
        <time>2008-04-23T10:28:19Z</time>
      </trkpt>
      <trkpt lat="43.8776" lon="1.80328">
        <ele>142</ele>
        <time>2008-04-23T10:31:19Z</time>
      </trkpt>
      <trkpt lat="43.87798" lon="1.80317">
        <ele>143</ele>
        <time>2008-04-23T10:31:51Z</time>
      </trkpt>
      <trkpt lat="43.87845" lon="1.80293">
        <ele>144</ele>
        <time>2008-04-23T10:32:29Z</time>
      </trkpt>
      <trkpt lat="43.88005" lon="1.80223">
        <ele>146</ele>
        <time>2008-04-23T10:34:47Z</time>
      </trkpt>
      <trkpt lat="43.88028" lon="1.80213">
        <ele>146</ele>
        <time>2008-04-23T10:35:11Z</time>
      </trkpt>
      <trkpt lat="43.88045" lon="1.80225">
        <ele>146</ele>
        <time>2008-04-23T10:35:29Z</time>
      </trkpt>
      <trkpt lat="43.88067" lon="1.80292">
        <ele>147</ele>
        <time>2008-04-23T10:36:13Z</time>
      </trkpt>
      <trkpt lat="43.88168" lon="1.8025">
        <ele>148</ele>
        <time>2008-04-23T10:39:22Z</time>
      </trkpt>
      <trkpt lat="43.88298" lon="1.8018">
        <ele>150</ele>
        <time>2008-04-23T10:41:37Z</time>
      </trkpt>
      <trkpt lat="43.88443" lon="1.8009">
        <ele>153</ele>
        <time>2008-04-23T10:43:45Z</time>
      </trkpt>
      <trkpt lat="43.8849" lon="1.80085">
        <ele>154</ele>
        <time>2008-04-23T10:44:24Z</time>
      </trkpt>
      <trkpt lat="43.88585" lon="1.80107">
        <ele>156</ele>
        <time>2008-04-23T10:45:44Z</time>
      </trkpt>
      <trkpt lat="43.88607" lon="1.80113">
        <ele>157</ele>
        <time>2008-04-23T10:46:06Z</time>
      </trkpt>
      <trkpt lat="43.88635" lon="1.8013">
        <ele>157</ele>
        <time>2008-04-23T10:46:34Z</time>
      </trkpt>
      <trkpt lat="43.88655" lon="1.80155">
        <ele>157</ele>
        <time>2008-04-23T10:46:59Z</time>
      </trkpt>
      <trkpt lat="43.88668" lon="1.8017">
        <ele>157</ele>
        <time>2008-04-23T10:47:13Z</time>
      </trkpt>
      <trkpt lat="43.88692" lon="1.80187">
        <ele>158</ele>
        <time>2008-04-23T10:47:34Z</time>
      </trkpt>
      <trkpt lat="43.88717" lon="1.802">
        <ele>159</ele>
        <time>2008-04-23T10:47:56Z</time>
      </trkpt>
      <trkpt lat="43.88728" lon="1.8021">
        <ele>159</ele>
        <time>2008-04-23T10:48:13Z</time>
      </trkpt>
      <trkpt lat="43.88708" lon="1.80195">
        <ele>159</ele>
        <time>2008-04-23T10:48:42Z</time>
      </trkpt>
      <trkpt lat="43.88772" lon="1.80072">
        <ele>163</ele>
        <time>2008-04-23T10:50:20Z</time>
      </trkpt>
      <trkpt lat="43.88772" lon="1.80047">
        <ele>163</ele>
        <time>2008-04-23T10:50:38Z</time>
      </trkpt>
      <trkpt lat="43.88755" lon="1.80012">
        <ele>165</ele>
        <time>2008-04-23T10:51:04Z</time>
      </trkpt>
      <trkpt lat="43.88705" lon="1.7994">
        <ele>171</ele>
        <time>2008-04-23T10:52:14Z</time>
      </trkpt>
      <trkpt lat="43.88712" lon="1.79918">
        <ele>172</ele>
        <time>2008-04-23T10:52:28Z</time>
      </trkpt>
      <trkpt lat="43.88732" lon="1.79915">
        <ele>172</ele>
        <time>2008-04-23T10:52:46Z</time>
      </trkpt>
      <trkpt lat="43.88958" lon="1.7963">
        <ele>185</ele>
        <time>2008-04-23T10:57:03Z</time>
      </trkpt>
      <trkpt lat="43.88972" lon="1.79585">
        <ele>189</ele>
        <time>2008-04-23T10:57:40Z</time>
      </trkpt>
      <trkpt lat="43.8899" lon="1.7939">
        <ele>213</ele>
        <time>2008-04-23T11:00:55Z</time>
      </trkpt>
      <trkpt lat="43.88973" lon="1.79373">
        <ele>213</ele>
        <time>2008-04-23T11:01:16Z</time>
      </trkpt>
      <trkpt lat="43.88958" lon="1.79357">
        <ele>214</ele>
        <time>2008-04-23T11:01:40Z</time>
      </trkpt>
      <trkpt lat="43.88947" lon="1.79337">
        <ele>217</ele>
        <time>2008-04-23T11:01:59Z</time>
      </trkpt>
      <trkpt lat="43.88962" lon="1.79298">
        <ele>221</ele>
        <time>2008-04-23T11:02:35Z</time>
      </trkpt>
      <trkpt lat="43.8899" lon="1.79248">
        <ele>228</ele>
        <time>2008-04-23T11:03:22Z</time>
      </trkpt>
      <trkpt lat="43.89033" lon="1.79202">
        <ele>236</ele>
        <time>2008-04-23T11:04:27Z</time>
      </trkpt>
      <trkpt lat="43.89057" lon="1.79195">
        <ele>238</ele>
        <time>2008-04-23T11:05:01Z</time>
      </trkpt>
      <trkpt lat="43.89073" lon="1.79205">
        <ele>238</ele>
        <time>2008-04-23T11:05:23Z</time>
      </trkpt>
      <trkpt lat="43.89088" lon="1.79232">
        <ele>238</ele>
        <time>2008-04-23T11:05:48Z</time>
      </trkpt>
      <trkpt lat="43.89112" lon="1.79247">
        <ele>237</ele>
        <time>2008-04-23T11:06:13Z</time>
      </trkpt>
      <trkpt lat="43.89178" lon="1.79252">
        <ele>237</ele>
        <time>2008-04-23T11:07:36Z</time>
      </trkpt>
      <trkpt lat="43.89223" lon="1.79227">
        <ele>240</ele>
        <time>2008-04-23T11:08:22Z</time>
      </trkpt>
      <trkpt lat="43.89268" lon="1.7918">
        <ele>241</ele>
        <time>2008-04-23T11:09:20Z</time>
      </trkpt>
      <trkpt lat="43.89295" lon="1.79147">
        <ele>243</ele>
        <time>2008-04-23T11:10:03Z</time>
      </trkpt>
      <trkpt lat="43.89317" lon="1.79122">
        <ele>246</ele>
        <time>2008-04-23T11:11:13Z</time>
      </trkpt>
      <trkpt lat="43.89337" lon="1.79107">
        <ele>245</ele>
        <time>2008-04-23T11:11:37Z</time>
      </trkpt>
      <trkpt lat="43.89352" lon="1.79097">
        <ele>243</ele>
        <time>2008-04-23T11:11:54Z</time>
      </trkpt>
      <trkpt lat="43.89372" lon="1.79102">
        <ele>242</ele>
        <time>2008-04-23T11:12:17Z</time>
      </trkpt>
      <trkpt lat="43.89387" lon="1.79118">
        <ele>242</ele>
        <time>2008-04-23T11:12:44Z</time>
      </trkpt>
      <trkpt lat="43.89403" lon="1.79147">
        <ele>242</ele>
        <time>2008-04-23T11:13:19Z</time>
      </trkpt>
      <trkpt lat="43.89418" lon="1.7917">
        <ele>238</ele>
        <time>2008-04-23T11:13:47Z</time>
      </trkpt>
      <trkpt lat="43.89447" lon="1.79173">
        <ele>233</ele>
        <time>2008-04-23T11:14:16Z</time>
      </trkpt>
      <trkpt lat="43.89477" lon="1.79167">
        <ele>231</ele>
        <time>2008-04-23T11:14:47Z</time>
      </trkpt>
      <trkpt lat="43.89518" lon="1.79167">
        <ele>230</ele>
        <time>2008-04-23T11:15:35Z</time>
      </trkpt>
      <trkpt lat="43.89532" lon="1.79165">
        <ele>231</ele>
        <time>2008-04-23T11:15:51Z</time>
      </trkpt>
      <trkpt lat="43.89588" lon="1.79162">
        <ele>235</ele>
        <time>2008-04-23T11:16:52Z</time>
      </trkpt>
      <trkpt lat="43.89687" lon="1.79138">
        <ele>240</ele>
        <time>2008-04-23T11:18:24Z</time>
      </trkpt>
      <trkpt lat="43.8971" lon="1.79147">
        <ele>239</ele>
        <time>2008-04-23T11:18:56Z</time>
      </trkpt>
      <trkpt lat="43.8975" lon="1.7914">
        <ele>235</ele>
        <time>2008-04-23T11:19:37Z</time>
      </trkpt>
      <trkpt lat="43.89793" lon="1.79128">
        <ele>234</ele>
        <time>2008-04-23T11:20:24Z</time>
      </trkpt>
      <trkpt lat="43.89822" lon="1.79127">
        <ele>235</ele>
        <time>2008-04-23T11:21:01Z</time>
      </trkpt>
      <trkpt lat="43.89835" lon="1.79122">
        <ele>237</ele>
        <time>2008-04-23T11:22:33Z</time>
      </trkpt>
      <trkpt lat="43.8985" lon="1.79115">
        <ele>239</ele>
        <time>2008-04-23T11:23:18Z</time>
      </trkpt>
      <trkpt lat="43.8987" lon="1.7909">
        <ele>241</ele>
        <time>2008-04-23T11:23:52Z</time>
      </trkpt>
      <trkpt lat="43.8989" lon="1.79067">
        <ele>240</ele>
        <time>2008-04-23T11:24:20Z</time>
      </trkpt>
      <trkpt lat="43.89903" lon="1.7905">
        <ele>237</ele>
        <time>2008-04-23T11:24:39Z</time>
      </trkpt>
      <trkpt lat="43.89942" lon="1.79013">
        <ele>229</ele>
        <time>2008-04-23T11:25:25Z</time>
      </trkpt>
      <trkpt lat="43.89952" lon="1.7899">
        <ele>227</ele>
        <time>2008-04-23T11:25:43Z</time>
      </trkpt>
      <trkpt lat="43.8998" lon="1.78972">
        <ele>225</ele>
        <time>2008-04-23T11:26:15Z</time>
      </trkpt>
      <trkpt lat="43.90003" lon="1.78968">
        <ele>224</ele>
        <time>2008-04-23T11:26:37Z</time>
      </trkpt>
      <trkpt lat="43.90042" lon="1.78925">
        <ele>218</ele>
        <time>2008-04-23T11:27:18Z</time>
      </trkpt>
      <trkpt lat="43.90055" lon="1.78903">
        <ele>216</ele>
        <time>2008-04-23T11:27:36Z</time>
      </trkpt>
      <trkpt lat="43.90067" lon="1.78855">
        <ele>214</ele>
        <time>2008-04-23T11:28:16Z</time>
      </trkpt>
      <trkpt lat="43.90072" lon="1.78822">
        <ele>212</ele>
        <time>2008-04-23T11:28:36Z</time>
      </trkpt>
      <trkpt lat="43.90083" lon="1.78787">
        <ele>213</ele>
        <time>2008-04-23T11:28:59Z</time>
      </trkpt>
      <trkpt lat="43.9009" lon="1.78725">
        <ele>212</ele>
        <time>2008-04-23T11:29:38Z</time>
      </trkpt>
      <trkpt lat="43.90085" lon="1.7866">
        <ele>206</ele>
        <time>2008-04-23T11:30:23Z</time>
      </trkpt>
      <trkpt lat="43.9009" lon="1.7864">
        <ele>205</ele>
        <time>2008-04-23T11:30:40Z</time>
      </trkpt>
      <trkpt lat="43.90105" lon="1.78628">
        <ele>205</ele>
        <time>2008-04-23T11:31:04Z</time>
      </trkpt>
      <trkpt lat="43.9012" lon="1.78605">
        <ele>202</ele>
        <time>2008-04-23T11:31:29Z</time>
      </trkpt>
      <trkpt lat="43.90122" lon="1.78587">
        <ele>198</ele>
        <time>2008-04-23T11:31:44Z</time>
      </trkpt>
      <trkpt lat="43.90125" lon="1.78558">
        <ele>195</ele>
        <time>2008-04-23T11:32:11Z</time>
      </trkpt>
      <trkpt lat="43.90107" lon="1.78542">
        <ele>194</ele>
        <time>2008-04-23T11:32:44Z</time>
      </trkpt>
      <trkpt lat="43.9009" lon="1.78532">
        <ele>193</ele>
        <time>2008-04-23T11:33:11Z</time>
      </trkpt>
      <trkpt lat="43.90092" lon="1.78487">
        <ele>194</ele>
        <time>2008-04-23T11:33:55Z</time>
      </trkpt>
      <trkpt lat="43.9009" lon="1.78463">
        <ele>196</ele>
        <time>2008-04-23T11:34:30Z</time>
      </trkpt>
      <trkpt lat="43.90092" lon="1.78443">
        <ele>198</ele>
        <time>2008-04-23T11:34:49Z</time>
      </trkpt>
      <trkpt lat="43.90108" lon="1.78388">
        <ele>202</ele>
        <time>2008-04-23T11:35:36Z</time>
      </trkpt>
      <trkpt lat="43.90128" lon="1.78355">
        <ele>203</ele>
        <time>2008-04-23T11:36:03Z</time>
      </trkpt>
      <trkpt lat="43.90208" lon="1.78213">
        <ele>214</ele>
        <time>2008-04-23T11:38:13Z</time>
      </trkpt>
      <trkpt lat="43.90238" lon="1.78165">
        <ele>223</ele>
        <time>2008-04-23T11:39:12Z</time>
      </trkpt>
      <trkpt lat="43.90295" lon="1.78065">
        <ele>238</ele>
        <time>2008-04-23T11:42:40Z</time>
      </trkpt>
      <trkpt lat="43.90337" lon="1.78072">
        <ele>240</ele>
        <time>2008-04-23T11:43:22Z</time>
      </trkpt>
      <trkpt lat="43.90353" lon="1.78063">
        <ele>241</ele>
        <time>2008-04-23T11:43:40Z</time>
      </trkpt>
      <trkpt lat="43.9036" lon="1.78033">
        <ele>240</ele>
        <time>2008-04-23T11:44:01Z</time>
      </trkpt>
      <trkpt lat="43.90378" lon="1.78015">
        <ele>240</ele>
        <time>2008-04-23T11:44:22Z</time>
      </trkpt>
      <trkpt lat="43.90402" lon="1.78027">
        <ele>240</ele>
        <time>2008-04-23T11:44:45Z</time>
      </trkpt>
      <trkpt lat="43.90423" lon="1.78065">
        <ele>240</ele>
        <time>2008-04-23T11:45:18Z</time>
      </trkpt>
      <trkpt lat="43.90437" lon="1.7809">
        <ele>240</ele>
        <time>2008-04-23T11:45:38Z</time>
      </trkpt>
      <trkpt lat="43.90465" lon="1.78122">
        <ele>241</ele>
        <time>2008-04-23T11:46:09Z</time>
      </trkpt>
      <trkpt lat="43.90587" lon="1.78203">
        <ele>245</ele>
        <time>2008-04-23T11:47:55Z</time>
      </trkpt>
      <trkpt lat="43.90637" lon="1.7822">
        <ele>245</ele>
        <time>2008-04-23T11:48:36Z</time>
      </trkpt>
      <trkpt lat="43.9071" lon="1.78213">
        <ele>246</ele>
        <time>2008-04-23T11:49:38Z</time>
      </trkpt>
      <trkpt lat="43.90768" lon="1.78245">
        <ele>248</ele>
        <time>2008-04-23T11:50:34Z</time>
      </trkpt>
      <trkpt lat="43.90832" lon="1.78253">
        <ele>249</ele>
        <time>2008-04-23T11:51:25Z</time>
      </trkpt>
      <trkpt lat="43.90877" lon="1.78275">
        <ele>247</ele>
        <time>2008-04-23T11:52:03Z</time>
      </trkpt>
      <trkpt lat="43.90895" lon="1.78268">
        <ele>246</ele>
        <time>2008-04-23T11:52:43Z</time>
      </trkpt>
      <trkpt lat="43.90913" lon="1.78232">
        <ele>244</ele>
        <time>2008-04-23T11:53:07Z</time>
      </trkpt>
      <trkpt lat="43.90942" lon="1.7818">
        <ele>243</ele>
        <time>2008-04-23T11:53:46Z</time>
      </trkpt>
      <trkpt lat="43.91005" lon="1.78135">
        <ele>239</ele>
        <time>2008-04-23T11:54:55Z</time>
      </trkpt>
      <trkpt lat="43.91035" lon="1.78103">
        <ele>236</ele>
        <time>2008-04-23T11:56:02Z</time>
      </trkpt>
      <trkpt lat="43.91103" lon="1.7803">
        <ele>230</ele>
        <time>2008-04-23T11:57:23Z</time>
      </trkpt>
      <trkpt lat="43.91158" lon="1.77962">
        <ele>226</ele>
        <time>2008-04-23T11:58:47Z</time>
      </trkpt>
      <trkpt lat="43.9118" lon="1.7794">
        <ele>223</ele>
        <time>2008-04-23T11:59:24Z</time>
      </trkpt>
      <trkpt lat="43.91197" lon="1.77923">
        <ele>222</ele>
        <time>2008-04-23T11:59:52Z</time>
      </trkpt>
      <trkpt lat="43.91243" lon="1.77893">
        <ele>218</ele>
        <time>2008-04-23T12:00:51Z</time>
      </trkpt>
      <trkpt lat="43.91257" lon="1.77875">
        <ele>217</ele>
        <time>2008-04-23T12:01:11Z</time>
      </trkpt>
      <trkpt lat="43.91282" lon="1.77838">
        <ele>214</ele>
        <time>2008-04-23T12:01:53Z</time>
      </trkpt>
      <trkpt lat="43.91298" lon="1.77812">
        <ele>213</ele>
        <time>2008-04-23T12:02:30Z</time>
      </trkpt>
      <trkpt lat="43.91312" lon="1.77785">
        <ele>212</ele>
        <time>2008-04-23T12:03:02Z</time>
      </trkpt>
      <trkpt lat="43.9132" lon="1.77767">
        <ele>210</ele>
        <time>2008-04-23T12:03:20Z</time>
      </trkpt>
      <trkpt lat="43.91333" lon="1.77735">
        <ele>208</ele>
        <time>2008-04-23T12:03:53Z</time>
      </trkpt>
      <trkpt lat="43.91345" lon="1.77707">
        <ele>208</ele>
        <time>2008-04-23T12:04:24Z</time>
      </trkpt>
      <trkpt lat="43.91358" lon="1.77677">
        <ele>207</ele>
        <time>2008-04-23T12:04:55Z</time>
      </trkpt>
      <trkpt lat="43.91373" lon="1.77652">
        <ele>205</ele>
        <time>2008-04-23T12:05:28Z</time>
      </trkpt>
      <trkpt lat="43.9139" lon="1.77618">
        <ele>205</ele>
        <time>2008-04-23T12:06:05Z</time>
      </trkpt>
      <trkpt lat="43.9141" lon="1.77592">
        <ele>203</ele>
        <time>2008-04-23T12:06:35Z</time>
      </trkpt>
      <trkpt lat="43.91418" lon="1.77573">
        <ele>201</ele>
        <time>2008-04-23T12:06:52Z</time>
      </trkpt>
      <trkpt lat="43.91432" lon="1.77558">
        <ele>202</ele>
        <time>2008-04-23T12:08:17Z</time>
      </trkpt>
      <trkpt lat="43.91448" lon="1.77543">
        <ele>202</ele>
        <time>2008-04-23T12:08:29Z</time>
      </trkpt>
      <trkpt lat="43.91462" lon="1.77532">
        <ele>201</ele>
        <time>2008-04-23T12:08:42Z</time>
      </trkpt>
      <trkpt lat="43.915" lon="1.77512">
        <ele>198</ele>
        <time>2008-04-23T12:09:06Z</time>
      </trkpt>
      <trkpt lat="43.91517" lon="1.77488">
        <ele>198</ele>
        <time>2008-04-23T12:09:18Z</time>
      </trkpt>
      <trkpt lat="43.91547" lon="1.77443">
        <ele>198</ele>
        <time>2008-04-23T12:09:51Z</time>
      </trkpt>
      <trkpt lat="43.91562" lon="1.77417">
        <ele>196</ele>
        <time>2008-04-23T12:10:12Z</time>
      </trkpt>
      <trkpt lat="43.91573" lon="1.77397">
        <ele>194</ele>
        <time>2008-04-23T12:10:35Z</time>
      </trkpt>
      <trkpt lat="43.91588" lon="1.77377">
        <ele>193</ele>
        <time>2008-04-23T12:10:51Z</time>
      </trkpt>
      <trkpt lat="43.916" lon="1.77362">
        <ele>192</ele>
        <time>2008-04-23T12:11:06Z</time>
      </trkpt>
      <trkpt lat="43.91642" lon="1.77327">
        <ele>191</ele>
        <time>2008-04-23T12:12:00Z</time>
      </trkpt>
      <trkpt lat="43.91657" lon="1.77335">
        <ele>191</ele>
        <time>2008-04-23T12:12:48Z</time>
      </trkpt>
      <trkpt lat="43.91673" lon="1.77342">
        <ele>192</ele>
        <time>2008-04-23T12:13:16Z</time>
      </trkpt>
      <trkpt lat="43.91688" lon="1.77362">
        <ele>192</ele>
        <time>2008-04-23T12:13:46Z</time>
      </trkpt>
      <trkpt lat="43.917" lon="1.77385">
        <ele>192</ele>
        <time>2008-04-23T12:14:30Z</time>
      </trkpt>
      <trkpt lat="43.91707" lon="1.77403">
        <ele>193</ele>
        <time>2008-04-23T12:14:57Z</time>
      </trkpt>
      <trkpt lat="43.91717" lon="1.77433">
        <ele>193</ele>
        <time>2008-04-23T12:15:30Z</time>
      </trkpt>
      <trkpt lat="43.91722" lon="1.77462">
        <ele>193</ele>
        <time>2008-04-23T12:16:04Z</time>
      </trkpt>
      <trkpt lat="43.9173" lon="1.77482">
        <ele>192</ele>
        <time>2008-04-23T12:17:12Z</time>
      </trkpt>
      <trkpt lat="43.91735" lon="1.77498">
        <ele>191</ele>
        <time>2008-04-23T12:17:43Z</time>
      </trkpt>
      <trkpt lat="43.91743" lon="1.77528">
        <ele>191</ele>
        <time>2008-04-23T12:18:14Z</time>
      </trkpt>
      <trkpt lat="43.91755" lon="1.77558">
        <ele>192</ele>
        <time>2008-04-23T12:18:41Z</time>
      </trkpt>
      <trkpt lat="43.91783" lon="1.7755">
        <ele>191</ele>
        <time>2008-04-23T12:19:11Z</time>
      </trkpt>
      <trkpt lat="43.91797" lon="1.77537">
        <ele>192</ele>
        <time>2008-04-23T12:19:26Z</time>
      </trkpt>
      <trkpt lat="43.91815" lon="1.7751">
        <ele>192</ele>
        <time>2008-04-23T12:19:50Z</time>
      </trkpt>
      <trkpt lat="43.91827" lon="1.77492">
        <ele>192</ele>
        <time>2008-04-23T12:20:18Z</time>
      </trkpt>
      <trkpt lat="43.91843" lon="1.77482">
        <ele>192</ele>
        <time>2008-04-23T12:20:36Z</time>
      </trkpt>
      <trkpt lat="43.91872" lon="1.77468">
        <ele>193</ele>
        <time>2008-04-23T12:21:01Z</time>
      </trkpt>
      <trkpt lat="43.91902" lon="1.77448">
        <ele>192</ele>
        <time>2008-04-23T12:21:28Z</time>
      </trkpt>
      <trkpt lat="43.91927" lon="1.7742">
        <ele>192</ele>
        <time>2008-04-23T12:22:01Z</time>
      </trkpt>
      <trkpt lat="43.9199" lon="1.77393">
        <ele>201</ele>
        <time>2008-04-23T12:23:39Z</time>
      </trkpt>
      <trkpt lat="43.92008" lon="1.7739">
        <ele>204</ele>
        <time>2008-04-23T12:24:08Z</time>
      </trkpt>
      <trkpt lat="43.92007" lon="1.77352">
        <ele>208</ele>
        <time>2008-04-23T12:24:55Z</time>
      </trkpt>
      <trkpt lat="43.92022" lon="1.77308">
        <ele>214</ele>
        <time>2008-04-23T12:25:44Z</time>
      </trkpt>
      <trkpt lat="43.9204" lon="1.77282">
        <ele>219</ele>
        <time>2008-04-23T12:26:32Z</time>
      </trkpt>
      <trkpt lat="43.92068" lon="1.77262">
        <ele>225</ele>
        <time>2008-04-23T12:27:42Z</time>
      </trkpt>
      <trkpt lat="43.92092" lon="1.77255">
        <ele>228</ele>
        <time>2008-04-23T12:28:19Z</time>
      </trkpt>
      <trkpt lat="43.92118" lon="1.77255">
        <ele>229</ele>
        <time>2008-04-23T12:28:44Z</time>
      </trkpt>
      <trkpt lat="43.92138" lon="1.77228">
        <ele>230</ele>
        <time>2008-04-23T12:29:11Z</time>
      </trkpt>
      <trkpt lat="43.92162" lon="1.77205">
        <ele>232</ele>
        <time>2008-04-23T12:29:35Z</time>
      </trkpt>
      <trkpt lat="43.92187" lon="1.77183">
        <ele>234</ele>
        <time>2008-04-23T12:30:02Z</time>
      </trkpt>
      <trkpt lat="43.92203" lon="1.77168">
        <ele>235</ele>
        <time>2008-04-23T12:30:22Z</time>
      </trkpt>
      <trkpt lat="43.92233" lon="1.77153">
        <ele>237</ele>
        <time>2008-04-23T12:30:58Z</time>
      </trkpt>
      <trkpt lat="43.92267" lon="1.77108">
        <ele>238</ele>
        <time>2008-04-23T12:31:45Z</time>
      </trkpt>
      <trkpt lat="43.92293" lon="1.77055">
        <ele>239</ele>
        <time>2008-04-23T12:32:30Z</time>
      </trkpt>
      <trkpt lat="43.92315" lon="1.77013">
        <ele>239</ele>
        <time>2008-04-23T12:33:06Z</time>
      </trkpt>
      <trkpt lat="43.92323" lon="1.76992">
        <ele>241</ele>
        <time>2008-04-23T12:33:26Z</time>
      </trkpt>
      <trkpt lat="43.9234" lon="1.76963">
        <ele>242</ele>
        <time>2008-04-23T12:33:55Z</time>
      </trkpt>
      <trkpt lat="43.92358" lon="1.76943">
        <ele>244</ele>
        <time>2008-04-23T12:34:30Z</time>
      </trkpt>
      <trkpt lat="43.92375" lon="1.76918">
        <ele>245</ele>
        <time>2008-04-23T12:35:01Z</time>
      </trkpt>
      <trkpt lat="43.92382" lon="1.76902">
        <ele>246</ele>
        <time>2008-04-23T12:35:19Z</time>
      </trkpt>
      <trkpt lat="43.92375" lon="1.7688">
        <ele>246</ele>
        <time>2008-04-23T12:35:50Z</time>
      </trkpt>
      <trkpt lat="43.92383" lon="1.76867">
        <ele>246</ele>
        <time>2008-04-23T12:39:16Z</time>
      </trkpt>
      <trkpt lat="43.92387" lon="1.7689">
        <ele>246</ele>
        <time>2008-04-23T13:19:05Z</time>
      </trkpt>
      <trkpt lat="43.9237" lon="1.76883">
        <ele>246</ele>
        <time>2008-04-23T13:19:47Z</time>
      </trkpt>
      <trkpt lat="43.92357" lon="1.76865">
        <ele>246</ele>
        <time>2008-04-23T13:20:11Z</time>
      </trkpt>
      <trkpt lat="43.92323" lon="1.76817">
        <ele>245</ele>
        <time>2008-04-23T13:20:56Z</time>
      </trkpt>
      <trkpt lat="43.92305" lon="1.76775">
        <ele>245</ele>
        <time>2008-04-23T13:21:25Z</time>
      </trkpt>
      <trkpt lat="43.92285" lon="1.76755">
        <ele>245</ele>
        <time>2008-04-23T13:21:46Z</time>
      </trkpt>
      <trkpt lat="43.92253" lon="1.76735">
        <ele>244</ele>
        <time>2008-04-23T13:22:16Z</time>
      </trkpt>
      <trkpt lat="43.92218" lon="1.767">
        <ele>243</ele>
        <time>2008-04-23T13:22:51Z</time>
      </trkpt>
      <trkpt lat="43.92177" lon="1.76692">
        <ele>242</ele>
        <time>2008-04-23T13:23:27Z</time>
      </trkpt>
      <trkpt lat="43.92115" lon="1.76697">
        <ele>236</ele>
        <time>2008-04-23T13:24:17Z</time>
      </trkpt>
      <trkpt lat="43.91998" lon="1.76657">
        <ele>222</ele>
        <time>2008-04-23T13:25:52Z</time>
      </trkpt>
      <trkpt lat="43.91908" lon="1.76622">
        <ele>210</ele>
        <time>2008-04-23T13:27:02Z</time>
      </trkpt>
      <trkpt lat="43.91855" lon="1.76617">
        <ele>205</ele>
        <time>2008-04-23T13:27:42Z</time>
      </trkpt>
      <trkpt lat="43.918" lon="1.76658">
        <ele>202</ele>
        <time>2008-04-23T13:28:28Z</time>
      </trkpt>
      <trkpt lat="43.91752" lon="1.76685">
        <ele>198</ele>
        <time>2008-04-23T13:29:06Z</time>
      </trkpt>
      <trkpt lat="43.91695" lon="1.76702">
        <ele>193</ele>
        <time>2008-04-23T13:29:51Z</time>
      </trkpt>
      <trkpt lat="43.91635" lon="1.76757">
        <ele>187</ele>
        <time>2008-04-23T13:30:40Z</time>
      </trkpt>
      <trkpt lat="43.91615" lon="1.76757">
        <ele>186</ele>
        <time>2008-04-23T13:30:54Z</time>
      </trkpt>
      <trkpt lat="43.91565" lon="1.76693">
        <ele>185</ele>
        <time>2008-04-23T13:31:45Z</time>
      </trkpt>
      <trkpt lat="43.91545" lon="1.7666">
        <ele>185</ele>
        <time>2008-04-23T13:32:10Z</time>
      </trkpt>
      <trkpt lat="43.91512" lon="1.76617">
        <ele>184</ele>
        <time>2008-04-23T13:32:42Z</time>
      </trkpt>
      <trkpt lat="43.91487" lon="1.76605">
        <ele>182</ele>
        <time>2008-04-23T13:33:04Z</time>
      </trkpt>
      <trkpt lat="43.91403" lon="1.76642">
        <ele>180</ele>
        <time>2008-04-23T13:34:16Z</time>
      </trkpt>
      <trkpt lat="43.91385" lon="1.76637">
        <ele>181</ele>
        <time>2008-04-23T13:34:31Z</time>
      </trkpt>
      <trkpt lat="43.91362" lon="1.76612">
        <ele>183</ele>
        <time>2008-04-23T13:34:56Z</time>
      </trkpt>
      <trkpt lat="43.91313" lon="1.76542">
        <ele>185</ele>
        <time>2008-04-23T13:35:51Z</time>
      </trkpt>
      <trkpt lat="43.91283" lon="1.76512">
        <ele>187</ele>
        <time>2008-04-23T13:36:20Z</time>
      </trkpt>
      <trkpt lat="43.9122" lon="1.7648">
        <ele>186</ele>
        <time>2008-04-23T13:37:10Z</time>
      </trkpt>
      <trkpt lat="43.91215" lon="1.7645">
        <ele>184</ele>
        <time>2008-04-23T13:37:30Z</time>
      </trkpt>
      <trkpt lat="43.9121" lon="1.76418">
        <ele>184</ele>
        <time>2008-04-23T13:37:51Z</time>
      </trkpt>
      <trkpt lat="43.91182" lon="1.76467">
        <ele>186</ele>
        <time>2008-04-23T13:39:02Z</time>
      </trkpt>
      <trkpt lat="43.91158" lon="1.76483">
        <ele>188</ele>
        <time>2008-04-23T13:39:57Z</time>
      </trkpt>
      <trkpt lat="43.91137" lon="1.765">
        <ele>190</ele>
        <time>2008-04-23T13:41:15Z</time>
      </trkpt>
      <trkpt lat="43.91093" lon="1.76522">
        <ele>195</ele>
        <time>2008-04-23T13:42:12Z</time>
      </trkpt>
      <trkpt lat="43.9107" lon="1.76543">
        <ele>197</ele>
        <time>2008-04-23T13:42:47Z</time>
      </trkpt>
      <trkpt lat="43.9102" lon="1.7657">
        <ele>205</ele>
        <time>2008-04-23T13:43:53Z</time>
      </trkpt>
      <trkpt lat="43.91008" lon="1.76588">
        <ele>206</ele>
        <time>2008-04-23T13:44:16Z</time>
      </trkpt>
      <trkpt lat="43.90992" lon="1.76598">
        <ele>208</ele>
        <time>2008-04-23T13:44:39Z</time>
      </trkpt>
      <trkpt lat="43.90968" lon="1.76588">
        <ele>213</ele>
        <time>2008-04-23T13:45:11Z</time>
      </trkpt>
      <trkpt lat="43.90948" lon="1.76597">
        <ele>214</ele>
        <time>2008-04-23T13:45:39Z</time>
      </trkpt>
      <trkpt lat="43.90923" lon="1.76598">
        <ele>217</ele>
        <time>2008-04-23T13:46:11Z</time>
      </trkpt>
      <trkpt lat="43.90897" lon="1.76615">
        <ele>220</ele>
        <time>2008-04-23T13:46:46Z</time>
      </trkpt>
      <trkpt lat="43.90853" lon="1.76658">
        <ele>228</ele>
        <time>2008-04-23T13:47:55Z</time>
      </trkpt>
      <trkpt lat="43.90822" lon="1.76678">
        <ele>231</ele>
        <time>2008-04-23T13:48:35Z</time>
      </trkpt>
      <trkpt lat="43.90712" lon="1.76707">
        <ele>237</ele>
        <time>2008-04-23T13:50:27Z</time>
      </trkpt>
      <trkpt lat="43.9068" lon="1.76723">
        <ele>235</ele>
        <time>2008-04-23T13:51:06Z</time>
      </trkpt>
      <trkpt lat="43.90652" lon="1.76747">
        <ele>233</ele>
        <time>2008-04-23T13:51:31Z</time>
      </trkpt>
      <trkpt lat="43.90632" lon="1.76788">
        <ele>235</ele>
        <time>2008-04-23T13:52:01Z</time>
      </trkpt>
      <trkpt lat="43.90603" lon="1.76838">
        <ele>240</ele>
        <time>2008-04-23T13:52:43Z</time>
      </trkpt>
      <trkpt lat="43.90545" lon="1.76897">
        <ele>241</ele>
        <time>2008-04-23T13:53:44Z</time>
      </trkpt>
      <trkpt lat="43.90447" lon="1.76952">
        <ele>240</ele>
        <time>2008-04-23T13:55:16Z</time>
      </trkpt>
      <trkpt lat="43.90418" lon="1.76965">
        <ele>240</ele>
        <time>2008-04-23T13:55:40Z</time>
      </trkpt>
      <trkpt lat="43.90375" lon="1.76978">
        <ele>240</ele>
        <time>2008-04-23T13:56:19Z</time>
      </trkpt>
      <trkpt lat="43.9034" lon="1.76988">
        <ele>242</ele>
        <time>2008-04-23T13:56:48Z</time>
      </trkpt>
      <trkpt lat="43.90237" lon="1.77047">
        <ele>243</ele>
        <time>2008-04-23T13:58:25Z</time>
      </trkpt>
      <trkpt lat="43.90213" lon="1.77087">
        <ele>242</ele>
        <time>2008-04-23T13:58:57Z</time>
      </trkpt>
      <trkpt lat="43.90152" lon="1.77253">
        <ele>242</ele>
        <time>2008-04-23T14:00:48Z</time>
      </trkpt>
      <trkpt lat="43.90118" lon="1.77248">
        <ele>243</ele>
        <time>2008-04-23T14:01:18Z</time>
      </trkpt>
      <trkpt lat="43.90068" lon="1.77307">
        <ele>244</ele>
        <time>2008-04-23T14:02:22Z</time>
      </trkpt>
      <trkpt lat="43.90032" lon="1.77358">
        <ele>245</ele>
        <time>2008-04-23T14:03:08Z</time>
      </trkpt>
      <trkpt lat="43.89985" lon="1.77437">
        <ele>243</ele>
        <time>2008-04-23T14:04:10Z</time>
      </trkpt>
      <trkpt lat="43.89913" lon="1.77415">
        <ele>242</ele>
        <time>2008-04-23T14:05:08Z</time>
      </trkpt>
      <trkpt lat="43.89892" lon="1.77447">
        <ele>240</ele>
        <time>2008-04-23T14:05:38Z</time>
      </trkpt>
      <trkpt lat="43.89875" lon="1.77485">
        <ele>236</ele>
        <time>2008-04-23T14:06:14Z</time>
      </trkpt>
      <trkpt lat="43.89863" lon="1.775">
        <ele>234</ele>
        <time>2008-04-23T14:06:34Z</time>
      </trkpt>
      <trkpt lat="43.8984" lon="1.7752">
        <ele>231</ele>
        <time>2008-04-23T14:07:03Z</time>
      </trkpt>
      <trkpt lat="43.89832" lon="1.77535">
        <ele>230</ele>
        <time>2008-04-23T14:07:20Z</time>
      </trkpt>
      <trkpt lat="43.89818" lon="1.77558">
        <ele>226</ele>
        <time>2008-04-23T14:07:45Z</time>
      </trkpt>
      <trkpt lat="43.89782" lon="1.77658">
        <ele>214</ele>
        <time>2008-04-23T14:08:50Z</time>
      </trkpt>
      <trkpt lat="43.89752" lon="1.7771">
        <ele>211</ele>
        <time>2008-04-23T14:09:30Z</time>
      </trkpt>
      <trkpt lat="43.8974" lon="1.77737">
        <ele>209</ele>
        <time>2008-04-23T14:09:51Z</time>
      </trkpt>
      <trkpt lat="43.89728" lon="1.77752">
        <ele>208</ele>
        <time>2008-04-23T14:10:06Z</time>
      </trkpt>
      <trkpt lat="43.89678" lon="1.77753">
        <ele>204</ele>
        <time>2008-04-23T14:11:01Z</time>
      </trkpt>
      <trkpt lat="43.89647" lon="1.77753">
        <ele>198</ele>
        <time>2008-04-23T14:11:37Z</time>
      </trkpt>
      <trkpt lat="43.89588" lon="1.77742">
        <ele>189</ele>
        <time>2008-04-23T14:12:33Z</time>
      </trkpt>
      <trkpt lat="43.89537" lon="1.77768">
        <ele>180</ele>
        <time>2008-04-23T14:13:22Z</time>
      </trkpt>
      <trkpt lat="43.89522" lon="1.77785">
        <ele>178</ele>
        <time>2008-04-23T14:13:40Z</time>
      </trkpt>
      <trkpt lat="43.89527" lon="1.77812">
        <ele>178</ele>
        <time>2008-04-23T14:14:05Z</time>
      </trkpt>
      <trkpt lat="43.89512" lon="1.77842">
        <ele>176</ele>
        <time>2008-04-23T14:14:34Z</time>
      </trkpt>
      <trkpt lat="43.8949" lon="1.7788">
        <ele>176</ele>
        <time>2008-04-23T14:15:06Z</time>
      </trkpt>
      <trkpt lat="43.89478" lon="1.77913">
        <ele>180</ele>
        <time>2008-04-23T14:15:37Z</time>
      </trkpt>
      <trkpt lat="43.89445" lon="1.77957">
        <ele>186</ele>
        <time>2008-04-23T14:16:32Z</time>
      </trkpt>
      <trkpt lat="43.89427" lon="1.77982">
        <ele>188</ele>
        <time>2008-04-23T14:17:01Z</time>
      </trkpt>
      <trkpt lat="43.89412" lon="1.78005">
        <ele>189</ele>
        <time>2008-04-23T14:17:23Z</time>
      </trkpt>
      <trkpt lat="43.89402" lon="1.7804">
        <ele>191</ele>
        <time>2008-04-23T14:17:50Z</time>
      </trkpt>
      <trkpt lat="43.894" lon="1.78087">
        <ele>196</ele>
        <time>2008-04-23T14:18:30Z</time>
      </trkpt>
      <trkpt lat="43.89393" lon="1.78103">
        <ele>198</ele>
        <time>2008-04-23T14:18:46Z</time>
      </trkpt>
      <trkpt lat="43.89375" lon="1.78132">
        <ele>200</ele>
        <time>2008-04-23T14:19:19Z</time>
      </trkpt>
      <trkpt lat="43.89362" lon="1.7816">
        <ele>200</ele>
        <time>2008-04-23T14:19:46Z</time>
      </trkpt>
      <trkpt lat="43.8935" lon="1.78187">
        <ele>203</ele>
        <time>2008-04-23T14:20:12Z</time>
      </trkpt>
      <trkpt lat="43.89338" lon="1.78217">
        <ele>205</ele>
        <time>2008-04-23T14:20:38Z</time>
      </trkpt>
      <trkpt lat="43.89332" lon="1.78248">
        <ele>208</ele>
        <time>2008-04-23T14:21:06Z</time>
      </trkpt>
      <trkpt lat="43.89327" lon="1.7827">
        <ele>209</ele>
        <time>2008-04-23T14:21:30Z</time>
      </trkpt>
      <trkpt lat="43.89307" lon="1.783">
        <ele>211</ele>
        <time>2008-04-23T14:22:07Z</time>
      </trkpt>
      <trkpt lat="43.89295" lon="1.78322">
        <ele>213</ele>
        <time>2008-04-23T14:22:27Z</time>
      </trkpt>
      <trkpt lat="43.89283" lon="1.78357">
        <ele>216</ele>
        <time>2008-04-23T14:23:07Z</time>
      </trkpt>
      <trkpt lat="43.89265" lon="1.78398">
        <ele>218</ele>
        <time>2008-04-23T14:23:56Z</time>
      </trkpt>
      <trkpt lat="43.89252" lon="1.78417">
        <ele>222</ele>
        <time>2008-04-23T14:24:18Z</time>
      </trkpt>
      <trkpt lat="43.892" lon="1.78502">
        <ele>230</ele>
        <time>2008-04-23T14:25:46Z</time>
      </trkpt>
      <trkpt lat="43.89188" lon="1.78518">
        <ele>230</ele>
        <time>2008-04-23T14:27:26Z</time>
      </trkpt>
      <trkpt lat="43.89178" lon="1.78525">
        <ele>230</ele>
        <time>2008-04-23T14:33:39Z</time>
      </trkpt>
      <trkpt lat="43.8913" lon="1.78485">
        <ele>232</ele>
        <time>2008-04-23T14:34:45Z</time>
      </trkpt>
      <trkpt lat="43.89113" lon="1.78472">
        <ele>233</ele>
        <time>2008-04-23T14:35:07Z</time>
      </trkpt>
      <trkpt lat="43.8909" lon="1.78468">
        <ele>233</ele>
        <time>2008-04-23T14:35:29Z</time>
      </trkpt>
      <trkpt lat="43.89048" lon="1.78472">
        <ele>231</ele>
        <time>2008-04-23T14:36:07Z</time>
      </trkpt>
      <trkpt lat="43.89025" lon="1.78483">
        <ele>227</ele>
        <time>2008-04-23T14:36:30Z</time>
      </trkpt>
      <trkpt lat="43.88998" lon="1.78512">
        <ele>224</ele>
        <time>2008-04-23T14:36:55Z</time>
      </trkpt>
      <trkpt lat="43.88985" lon="1.78532">
        <ele>222</ele>
        <time>2008-04-23T14:37:10Z</time>
      </trkpt>
      <trkpt lat="43.88942" lon="1.78593">
        <ele>221</ele>
        <time>2008-04-23T14:38:00Z</time>
      </trkpt>
      <trkpt lat="43.88885" lon="1.7862">
        <ele>219</ele>
        <time>2008-04-23T14:38:48Z</time>
      </trkpt>
      <trkpt lat="43.88818" lon="1.78698">
        <ele>219</ele>
        <time>2008-04-23T14:39:56Z</time>
      </trkpt>
      <trkpt lat="43.88758" lon="1.78748">
        <ele>212</ele>
        <time>2008-04-23T14:40:50Z</time>
      </trkpt>
      <trkpt lat="43.88713" lon="1.78815">
        <ele>207</ele>
        <time>2008-04-23T14:41:45Z</time>
      </trkpt>
      <trkpt lat="43.88687" lon="1.78892">
        <ele>201</ele>
        <time>2008-04-23T14:42:36Z</time>
      </trkpt>
      <trkpt lat="43.88653" lon="1.78922">
        <ele>196</ele>
        <time>2008-04-23T14:43:11Z</time>
      </trkpt>
      <trkpt lat="43.8861" lon="1.7896">
        <ele>192</ele>
        <time>2008-04-23T14:43:51Z</time>
      </trkpt>
      <trkpt lat="43.88588" lon="1.79">
        <ele>187</ele>
        <time>2008-04-23T14:44:20Z</time>
      </trkpt>
      <trkpt lat="43.88567" lon="1.7906">
        <ele>183</ele>
        <time>2008-04-23T14:44:58Z</time>
      </trkpt>
      <trkpt lat="43.88558" lon="1.7911">
        <ele>181</ele>
        <time>2008-04-23T14:45:27Z</time>
      </trkpt>
      <trkpt lat="43.88542" lon="1.79133">
        <ele>180</ele>
        <time>2008-04-23T14:45:48Z</time>
      </trkpt>
      <trkpt lat="43.88452" lon="1.79208">
        <ele>174</ele>
        <time>2008-04-23T14:47:14Z</time>
      </trkpt>
      <trkpt lat="43.88423" lon="1.79237">
        <ele>172</ele>
        <time>2008-04-23T14:47:42Z</time>
      </trkpt>
      <trkpt lat="43.88395" lon="1.79267">
        <ele>169</ele>
        <time>2008-04-23T14:48:11Z</time>
      </trkpt>
      <trkpt lat="43.8822" lon="1.79493">
        <ele>150</ele>
        <time>2008-04-23T14:51:38Z</time>
      </trkpt>
      <trkpt lat="43.88202" lon="1.7952">
        <ele>149</ele>
        <time>2008-04-23T14:51:59Z</time>
      </trkpt>
      <trkpt lat="43.88142" lon="1.79587">
        <ele>147</ele>
        <time>2008-04-23T14:53:03Z</time>
      </trkpt>
      <trkpt lat="43.88115" lon="1.79618">
        <ele>146</ele>
        <time>2008-04-23T14:53:32Z</time>
      </trkpt>
      <trkpt lat="43.88117" lon="1.79657">
        <ele>145</ele>
        <time>2008-04-23T14:53:54Z</time>
      </trkpt>
      <trkpt lat="43.88128" lon="1.79672">
        <ele>145</ele>
        <time>2008-04-23T14:54:10Z</time>
      </trkpt>
      <trkpt lat="43.88137" lon="1.79715">
        <ele>146</ele>
        <time>2008-04-23T14:54:40Z</time>
      </trkpt>
      <trkpt lat="43.8815" lon="1.79758">
        <ele>145</ele>
        <time>2008-04-23T14:55:10Z</time>
      </trkpt>
      <trkpt lat="43.88165" lon="1.79798">
        <ele>146</ele>
        <time>2008-04-23T14:55:40Z</time>
      </trkpt>
      <trkpt lat="43.88182" lon="1.79827">
        <ele>146</ele>
        <time>2008-04-23T14:56:04Z</time>
      </trkpt>
      <trkpt lat="43.88232" lon="1.79907">
        <ele>147</ele>
        <time>2008-04-23T14:57:13Z</time>
      </trkpt>
      <trkpt lat="43.88235" lon="1.79942">
        <ele>148</ele>
        <time>2008-04-23T14:57:37Z</time>
      </trkpt>
      <trkpt lat="43.8824" lon="1.79987">
        <ele>148</ele>
        <time>2008-04-23T14:58:03Z</time>
      </trkpt>
      <trkpt lat="43.88277" lon="1.80117">
        <ele>149</ele>
        <time>2008-04-23T14:59:30Z</time>
      </trkpt>
      <trkpt lat="43.88287" lon="1.80138">
        <ele>150</ele>
        <time>2008-04-23T14:59:49Z</time>
      </trkpt>
      <trkpt lat="43.88298" lon="1.8017">
        <ele>150</ele>
        <time>2008-04-23T15:00:16Z</time>
      </trkpt>
      <trkpt lat="43.88167" lon="1.80248">
        <ele>148</ele>
        <time>2008-04-23T15:02:27Z</time>
      </trkpt>
      <trkpt lat="43.88092" lon="1.80288">
        <ele>147</ele>
        <time>2008-04-23T15:03:34Z</time>
      </trkpt>
      <trkpt lat="43.88075" lon="1.80297">
        <ele>147</ele>
        <time>2008-04-23T15:03:49Z</time>
      </trkpt>
      <trkpt lat="43.8806" lon="1.80267">
        <ele>147</ele>
        <time>2008-04-23T15:04:13Z</time>
      </trkpt>
      <trkpt lat="43.88047" lon="1.80223">
        <ele>146</ele>
        <time>2008-04-23T15:04:43Z</time>
      </trkpt>
      <trkpt lat="43.88032" lon="1.8022">
        <ele>146</ele>
        <time>2008-04-23T15:04:59Z</time>
      </trkpt>
      <trkpt lat="43.88" lon="1.80223">
        <ele>146</ele>
        <time>2008-04-23T15:05:30Z</time>
      </trkpt>
      <trkpt lat="43.87895" lon="1.80265">
        <ele>144</ele>
        <time>2008-04-23T15:07:03Z</time>
      </trkpt>
      <trkpt lat="43.87785" lon="1.8032">
        <ele>143</ele>
        <time>2008-04-23T15:08:41Z</time>
      </trkpt>
      <trkpt lat="43.8775" lon="1.8033">
        <ele>142</ele>
        <time>2008-04-23T15:09:08Z</time>
      </trkpt>
      <trkpt lat="43.87555" lon="1.80418">
        <ele>139</ele>
        <time>2008-04-23T15:11:53Z</time>
      </trkpt>
      <trkpt lat="43.87528" lon="1.8041">
        <ele>139</ele>
        <time>2008-04-23T15:12:17Z</time>
      </trkpt>
      <trkpt lat="43.87337" lon="1.80497">
        <ele>138</ele>
        <time>2008-04-23T15:15:08Z</time>
      </trkpt>
      <trkpt lat="43.87267" lon="1.80553">
        <ele>138</ele>
        <time>2008-04-23T15:16:19Z</time>
      </trkpt>
      <trkpt lat="43.87238" lon="1.80567">
        <ele>138</ele>
        <time>2008-04-23T15:16:43Z</time>
      </trkpt>
      <trkpt lat="43.87213" lon="1.80575">
        <ele>137</ele>
        <time>2008-04-23T15:17:05Z</time>
      </trkpt>
      <trkpt lat="43.87192" lon="1.8058">
        <ele>137</ele>
        <time>2008-04-23T15:17:23Z</time>
      </trkpt>
      <trkpt lat="43.87172" lon="1.80585">
        <ele>137</ele>
        <time>2008-04-23T15:17:41Z</time>
      </trkpt>
      <trkpt lat="43.87133" lon="1.80563">
        <ele>137</ele>
        <time>2008-04-23T15:18:16Z</time>
      </trkpt>
      <trkpt lat="43.87108" lon="1.80568">
        <ele>137</ele>
        <time>2008-04-23T15:18:37Z</time>
      </trkpt>
      <trkpt lat="43.86835" lon="1.80747">
        <ele>134</ele>
        <time>2008-04-23T15:22:47Z</time>
      </trkpt>
      <trkpt lat="43.86818" lon="1.8075">
        <ele>134</ele>
        <time>2008-04-23T15:23:01Z</time>
      </trkpt>
      <trkpt lat="43.86787" lon="1.8073">
        <ele>134</ele>
        <time>2008-04-23T15:23:29Z</time>
      </trkpt>
      <trkpt lat="43.86717" lon="1.8081">
        <ele>133</ele>
        <time>2008-04-23T15:24:47Z</time>
      </trkpt>
      <trkpt lat="43.867" lon="1.8083">
        <ele>133</ele>
        <time>2008-04-23T15:25:07Z</time>
      </trkpt>
      <trkpt lat="43.86718" lon="1.80863">
        <ele>133</ele>
        <time>2008-04-23T15:25:34Z</time>
      </trkpt>
      <trkpt lat="43.86767" lon="1.80902">
        <ele>133</ele>
        <time>2008-04-23T15:26:22Z</time>
      </trkpt>
      <trkpt lat="43.86792" lon="1.80942">
        <ele>134</ele>
        <time>2008-04-23T15:26:55Z</time>
      </trkpt>
      <trkpt lat="43.86812" lon="1.80967">
        <ele>134</ele>
        <time>2008-04-23T15:27:18Z</time>
      </trkpt>
      <trkpt lat="43.86853" lon="1.81005">
        <ele>134</ele>
        <time>2008-04-23T15:27:59Z</time>
      </trkpt>
      <trkpt lat="43.86878" lon="1.81023">
        <ele>134</ele>
        <time>2008-04-23T15:28:23Z</time>
      </trkpt>
      <trkpt lat="43.8693" lon="1.81042">
        <ele>134</ele>
        <time>2008-04-23T15:29:09Z</time>
      </trkpt>
      <trkpt lat="43.86955" lon="1.81062">
        <ele>134</ele>
        <time>2008-04-23T15:29:33Z</time>
      </trkpt>
      <trkpt lat="43.86983" lon="1.8109">
        <ele>135</ele>
        <time>2008-04-23T15:30:03Z</time>
      </trkpt>
      <trkpt lat="43.87025" lon="1.81138">
        <ele>135</ele>
        <time>2008-04-23T15:30:50Z</time>
      </trkpt>
      <trkpt lat="43.87047" lon="1.8117">
        <ele>135</ele>
        <time>2008-04-23T15:31:17Z</time>
      </trkpt>
      <trkpt lat="43.87067" lon="1.81205">
        <ele>135</ele>
        <time>2008-04-23T15:31:47Z</time>
      </trkpt>
      <trkpt lat="43.8702" lon="1.8125">
        <ele>134</ele>
        <time>2008-04-23T15:32:40Z</time>
      </trkpt>
      <trkpt lat="43.86965" lon="1.81288">
        <ele>133</ele>
        <time>2008-04-23T15:33:34Z</time>
      </trkpt>
      <trkpt lat="43.86932" lon="1.81327">
        <ele>133</ele>
        <time>2008-04-23T15:34:13Z</time>
      </trkpt>
      <trkpt lat="43.8685" lon="1.81412">
        <ele>132</ele>
        <time>2008-04-23T15:35:41Z</time>
      </trkpt>
      <trkpt lat="43.86833" lon="1.81438">
        <ele>132</ele>
        <time>2008-04-23T15:36:08Z</time>
      </trkpt>
      <trkpt lat="43.86813" lon="1.8148">
        <ele>131</ele>
        <time>2008-04-23T15:36:41Z</time>
      </trkpt>
      <trkpt lat="43.86793" lon="1.81477">
        <ele>131</ele>
        <time>2008-04-23T15:36:59Z</time>
      </trkpt>
      <trkpt lat="43.86752" lon="1.81565">
        <ele>130</ele>
        <time>2008-04-23T15:38:03Z</time>
      </trkpt>
      <trkpt lat="43.8672" lon="1.81595">
        <ele>130</ele>
        <time>2008-04-23T15:38:34Z</time>
      </trkpt>
      <trkpt lat="43.86678" lon="1.81623">
        <ele>130</ele>
        <time>2008-04-23T15:39:14Z</time>
      </trkpt>
      <trkpt lat="43.86593" lon="1.81655">
        <ele>128</ele>
        <time>2008-04-23T15:40:29Z</time>
      </trkpt>
      <trkpt lat="43.86568" lon="1.81667">
        <ele>127</ele>
        <time>2008-04-23T15:40:54Z</time>
      </trkpt>
      <trkpt lat="43.86468" lon="1.81703">
        <ele>125</ele>
        <time>2008-04-23T15:42:28Z</time>
      </trkpt>
      <trkpt lat="43.86452" lon="1.81692">
        <ele>125</ele>
        <time>2008-04-23T15:42:46Z</time>
      </trkpt>
      <trkpt lat="43.86433" lon="1.81677">
        <ele>125</ele>
        <time>2008-04-23T15:43:25Z</time>
      </trkpt>
      <trkpt lat="43.86407" lon="1.81677">
        <ele>124</ele>
        <time>2008-04-23T15:43:50Z</time>
      </trkpt>
      <trkpt lat="43.86397" lon="1.81698">
        <ele>124</ele>
        <time>2008-04-23T15:44:08Z</time>
      </trkpt>
      <trkpt lat="43.86383" lon="1.81713">
        <ele>125</ele>
        <time>2008-04-23T15:44:27Z</time>
      </trkpt>
      <trkpt lat="43.86337" lon="1.81675">
        <ele>125</ele>
        <time>2008-04-23T15:45:24Z</time>
      </trkpt>
      <trkpt lat="43.86313" lon="1.81713">
        <ele>125</ele>
        <time>2008-04-23T15:46:10Z</time>
      </trkpt>
      <trkpt lat="43.86297" lon="1.81748">
        <ele>126</ele>
        <time>2008-04-23T15:46:41Z</time>
      </trkpt>
    </trkseg>
  </trk>
</gpx>